ITY575 LSGG-LIRF
Flight info
| Callsign | ITY575 |
|---|---|
| Flight time | 1h 1m |
| Altitude | 35000 |
| Route | MEDAM DCT NITAM DCT MOGBO DCT ELB/N0445F360 DCT ELKAP |
| Aircraft | A21N/M-SDE2E3FGHIRWXY/LB1 |
Departure
| Time | 2026-05-05 09:36 |
|---|---|
| Airport | Geneva International Airport (LSGG) |
Arrival
| Time | 2026-05-05 10:38 |
|---|---|
| Airport | Rome–Fiumicino Leonardo da Vinci International Airport (LIRF) |
| Time | Latitude | Longitude | Altitude | Speed | Heading |
|---|---|---|---|---|---|
| 2026-05-05 09:18 | 46.22980 | 6.10492 | 1401 ft | 0 kts | 136° |
| 2026-05-05 09:28 | 46.22994 | 6.10473 | 1408 ft | 2 kts | 135° |
| 2026-05-05 09:28 | 46.23007 | 6.10446 | 1407 ft | 4 kts | 93° |
| 2026-05-05 09:28 | 46.22999 | 6.10414 | 1406 ft | 4 kts | 49° |
| 2026-05-05 09:28 | 46.22990 | 6.10400 | 1408 ft | 1 kts | 45° |
| 2026-05-05 09:29 | 46.22989 | 6.10399 | 1408 ft | 0 kts | 45° |
| 2026-05-05 09:30 | 46.22998 | 6.10412 | 1406 ft | 9 kts | 46° |
| 2026-05-05 09:31 | 46.23066 | 6.10514 | 1398 ft | 16 kts | 46° |
| 2026-05-05 09:31 | 46.23152 | 6.10639 | 1402 ft | 19 kts | 45° |
| 2026-05-05 09:31 | 46.23235 | 6.10756 | 1398 ft | 13 kts | 36° |
| 2026-05-05 09:31 | 46.23330 | 6.10800 | 1401 ft | 16 kts | 352° |
| 2026-05-05 09:32 | 46.23407 | 6.10721 | 1402 ft | 13 kts | 313° |
| 2026-05-05 09:32 | 46.23468 | 6.10723 | 1398 ft | 12 kts | 44° |
| 2026-05-05 09:32 | 46.23547 | 6.10851 | 1396 ft | 21 kts | 47° |
| 2026-05-05 09:32 | 46.23655 | 6.11011 | 1399 ft | 23 kts | 45° |
| 2026-05-05 09:33 | 46.23770 | 6.11175 | 1385 ft | 23 kts | 44° |
| 2026-05-05 09:33 | 46.23890 | 6.11350 | 1380 ft | 26 kts | 45° |
| 2026-05-05 09:33 | 46.24018 | 6.11538 | 1373 ft | 27 kts | 45° |
| 2026-05-05 09:33 | 46.24154 | 6.11740 | 1371 ft | 29 kts | 46° |
| 2026-05-05 09:34 | 46.24298 | 6.11952 | 1368 ft | 31 kts | 45° |
| 2026-05-05 09:34 | 46.24457 | 6.12184 | 1376 ft | 34 kts | 45° |
| 2026-05-05 09:34 | 46.24624 | 6.12429 | 1374 ft | 34 kts | 45° |
| 2026-05-05 09:34 | 46.24773 | 6.12641 | 1367 ft | 20 kts | 34° |
| 2026-05-05 09:35 | 46.24911 | 6.12721 | 1369 ft | 17 kts | 17° |
| 2026-05-05 09:35 | 46.24986 | 6.12626 | 1377 ft | 6 kts | 227° |
| 2026-05-05 09:35 | 46.24945 | 6.12565 | 1376 ft | 20 kts | 226° |
| 2026-05-05 09:36 | 46.24616 | 6.12084 | 1375 ft | 115 kts | 225° |
| 2026-05-05 09:36 | 46.23891 | 6.11021 | 1387 ft | 179 kts | 225° |
| 2026-05-05 09:36 | 46.22978 | 6.09694 | 2039 ft | 191 kts | 225° |
| 2026-05-05 09:36 | 46.22020 | 6.08311 | 3116 ft | 200 kts | 224° |
| 2026-05-05 09:37 | 46.20970 | 6.06771 | 3921 ft | 234 kts | 224° |
| 2026-05-05 09:37 | 46.19756 | 6.04984 | 4894 ft | 257 kts | 225° |
| 2026-05-05 09:37 | 46.18496 | 6.03128 | 6331 ft | 260 kts | 224° |
| 2026-05-05 09:37 | 46.17231 | 6.01274 | 7733 ft | 259 kts | 224° |
| 2026-05-05 09:38 | 46.15965 | 5.99439 | 8996 ft | 262 kts | 222° |
| 2026-05-05 09:38 | 46.14424 | 5.98013 | 10157 ft | 270 kts | 204° |
| 2026-05-05 09:38 | 46.12482 | 5.97472 | 10634 ft | 302 kts | 180° |
| 2026-05-05 09:38 | 46.10355 | 5.98241 | 11110 ft | 333 kts | 157° |
| 2026-05-05 09:39 | 46.08415 | 6.00254 | 11856 ft | 352 kts | 142° |
| 2026-05-05 09:39 | 46.06559 | 6.02614 | 12872 ft | 359 kts | 142° |
| 2026-05-05 09:39 | 46.04661 | 6.04989 | 13930 ft | 364 kts | 142° |
| 2026-05-05 09:39 | 46.02722 | 6.07362 | 14903 ft | 369 kts | 143° |
| 2026-05-05 09:40 | 46.00741 | 6.09752 | 15914 ft | 374 kts | 143° |
| 2026-05-05 09:40 | 45.98724 | 6.12172 | 16918 ft | 379 kts | 143° |
| 2026-05-05 09:40 | 45.96683 | 6.14611 | 17909 ft | 385 kts | 143° |
| 2026-05-05 09:40 | 45.94610 | 6.17088 | 18797 ft | 390 kts | 143° |
| 2026-05-05 09:41 | 45.92508 | 6.19595 | 19655 ft | 395 kts | 143° |
| 2026-05-05 09:41 | 45.90383 | 6.22123 | 20497 ft | 399 kts | 143° |
| 2026-05-05 09:41 | 45.88259 | 6.24641 | 21285 ft | 404 kts | 143° |
| 2026-05-05 09:41 | 45.86083 | 6.27218 | 22071 ft | 408 kts | 143° |
| 2026-05-05 09:42 | 45.83849 | 6.29862 | 22830 ft | 413 kts | 143° |
| 2026-05-05 09:42 | 45.81652 | 6.32462 | 23553 ft | 416 kts | 143° |
| 2026-05-05 09:42 | 45.79406 | 6.35121 | 24176 ft | 421 kts | 143° |
| 2026-05-05 09:42 | 45.77136 | 6.37808 | 24814 ft | 425 kts | 143° |
| 2026-05-05 09:43 | 45.74868 | 6.40486 | 25469 ft | 428 kts | 143° |
| 2026-05-05 09:43 | 45.72561 | 6.43209 | 26125 ft | 431 kts | 143° |
| 2026-05-05 09:43 | 45.70234 | 6.45954 | 26752 ft | 434 kts | 143° |
| 2026-05-05 09:43 | 45.67890 | 6.48717 | 27363 ft | 438 kts | 143° |
| 2026-05-05 09:44 | 45.65532 | 6.51490 | 27980 ft | 441 kts | 144° |
| 2026-05-05 09:44 | 45.63153 | 6.54284 | 28570 ft | 443 kts | 144° |
| 2026-05-05 09:44 | 45.60776 | 6.57072 | 29348 ft | 441 kts | 144° |
| 2026-05-05 09:44 | 45.58409 | 6.59847 | 30113 ft | 439 kts | 144° |
| 2026-05-05 09:45 | 45.56049 | 6.62611 | 30697 ft | 439 kts | 145° |
| 2026-05-05 09:45 | 45.53683 | 6.65376 | 31228 ft | 439 kts | 145° |
| 2026-05-05 09:45 | 45.51317 | 6.68135 | 31709 ft | 440 kts | 146° |
| 2026-05-05 09:45 | 45.48951 | 6.70895 | 32243 ft | 440 kts | 146° |
| 2026-05-05 09:46 | 45.46582 | 6.73654 | 32797 ft | 439 kts | 146° |
| 2026-05-05 09:46 | 45.44144 | 6.76252 | 33324 ft | 436 kts | 150° |
| 2026-05-05 09:46 | 45.41676 | 6.78742 | 33778 ft | 436 kts | 150° |
| 2026-05-05 09:46 | 45.39229 | 6.81193 | 34247 ft | 435 kts | 151° |
| 2026-05-05 09:47 | 45.36749 | 6.83677 | 34656 ft | 436 kts | 151° |
| 2026-05-05 09:47 | 45.34263 | 6.86161 | 35071 ft | 436 kts | 151° |
| 2026-05-05 09:47 | 45.31783 | 6.88643 | 35492 ft | 436 kts | 151° |
| 2026-05-05 09:47 | 45.29295 | 6.91132 | 35896 ft | 437 kts | 151° |
| 2026-05-05 09:48 | 45.26841 | 6.93634 | 36284 ft | 439 kts | 148° |
| 2026-05-05 09:48 | 45.24537 | 6.96548 | 36657 ft | 445 kts | 142° |
| 2026-05-05 09:48 | 45.23070 | 6.98570 | 36924 ft | 445 kts | 141° |
| 2026-05-05 09:48 | 45.20856 | 7.01642 | 37305 ft | 446 kts | 141° |
| 2026-05-05 09:49 | 45.18635 | 7.04721 | 37691 ft | 446 kts | 141° |
| 2026-05-05 09:49 | 45.16418 | 7.07785 | 38094 ft | 445 kts | 141° |
| 2026-05-05 09:49 | 45.14195 | 7.10844 | 38445 ft | 445 kts | 142° |
| 2026-05-05 09:49 | 45.11977 | 7.13890 | 38747 ft | 445 kts | 141° |
| 2026-05-05 09:50 | 45.09891 | 7.17184 | 38944 ft | 453 kts | 133° |
| 2026-05-05 09:50 | 45.08042 | 7.20824 | 39007 ft | 455 kts | 130° |
| 2026-05-05 09:50 | 45.04431 | 7.28161 | 38981 ft | 454 kts | 130° |
| 2026-05-05 09:51 | 45.00795 | 7.35453 | 38969 ft | 454 kts | 131° |
| 2026-05-05 09:51 | 44.96990 | 7.42422 | 38968 ft | 446 kts | 140° |
| 2026-05-05 09:52 | 44.92587 | 7.48594 | 39010 ft | 446 kts | 141° |
| 2026-05-05 09:52 | 44.88177 | 7.54751 | 39007 ft | 446 kts | 141° |
| 2026-05-05 09:53 | 44.83781 | 7.60881 | 39008 ft | 446 kts | 141° |
| 2026-05-05 09:53 | 44.79360 | 7.67022 | 39004 ft | 446 kts | 141° |
| 2026-05-05 09:54 | 44.74935 | 7.73170 | 39008 ft | 447 kts | 141° |
| 2026-05-05 09:54 | 44.70507 | 7.79314 | 39011 ft | 447 kts | 141° |
| 2026-05-05 09:55 | 44.66100 | 7.85406 | 39010 ft | 448 kts | 142° |
| 2026-05-05 09:55 | 44.61641 | 7.91553 | 39011 ft | 448 kts | 142° |
| 2026-05-05 09:56 | 44.57186 | 7.97683 | 39004 ft | 449 kts | 141° |
| 2026-05-05 09:56 | 44.52729 | 8.03808 | 38996 ft | 449 kts | 142° |
| 2026-05-05 09:57 | 44.48253 | 8.09933 | 38986 ft | 450 kts | 142° |
| 2026-05-05 09:57 | 44.43773 | 8.16054 | 38989 ft | 450 kts | 142° |
| 2026-05-05 09:58 | 44.39307 | 8.22144 | 38996 ft | 450 kts | 142° |
| 2026-05-05 09:58 | 44.34820 | 8.28248 | 38987 ft | 451 kts | 142° |
| 2026-05-05 09:59 | 44.30320 | 8.34343 | 38973 ft | 451 kts | 142° |
| 2026-05-05 09:59 | 44.25813 | 8.40445 | 38971 ft | 451 kts | 142° |
| 2026-05-05 10:00 | 44.21306 | 8.46532 | 38963 ft | 451 kts | 142° |
| 2026-05-05 10:00 | 44.16794 | 8.52612 | 38959 ft | 452 kts | 142° |
| 2026-05-05 10:01 | 44.12301 | 8.58652 | 38956 ft | 452 kts | 142° |
| 2026-05-05 10:01 | 44.07776 | 8.64725 | 38954 ft | 452 kts | 142° |
| 2026-05-05 10:02 | 44.03242 | 8.70803 | 38958 ft | 453 kts | 142° |
| 2026-05-05 10:02 | 43.98696 | 8.76870 | 38952 ft | 453 kts | 142° |
| 2026-05-05 10:03 | 43.94162 | 8.82914 | 38954 ft | 454 kts | 142° |
| 2026-05-05 10:03 | 43.89607 | 8.88984 | 38952 ft | 454 kts | 142° |
| 2026-05-05 10:04 | 43.85042 | 8.95043 | 38953 ft | 454 kts | 142° |
| 2026-05-05 10:04 | 43.80469 | 9.01076 | 38953 ft | 454 kts | 142° |
| 2026-05-05 10:05 | 43.75930 | 9.07075 | 38958 ft | 454 kts | 142° |
| 2026-05-05 10:05 | 43.71357 | 9.13122 | 38955 ft | 454 kts | 142° |
| 2026-05-05 10:06 | 43.66776 | 9.19143 | 38960 ft | 454 kts | 142° |
| 2026-05-05 10:06 | 43.62195 | 9.25150 | 38963 ft | 454 kts | 142° |
| 2026-05-05 10:07 | 43.57614 | 9.31147 | 38961 ft | 454 kts | 142° |
| 2026-05-05 10:07 | 43.53026 | 9.37136 | 38966 ft | 454 kts | 142° |
| 2026-05-05 10:08 | 43.48443 | 9.43113 | 38961 ft | 455 kts | 142° |
| 2026-05-05 10:08 | 43.43849 | 9.49101 | 38966 ft | 455 kts | 142° |
| 2026-05-05 10:09 | 43.39238 | 9.55081 | 38963 ft | 456 kts | 142° |
| 2026-05-05 10:09 | 43.34621 | 9.61067 | 38970 ft | 456 kts | 142° |
| 2026-05-05 10:10 | 43.29998 | 9.67043 | 38968 ft | 456 kts | 142° |
| 2026-05-05 10:10 | 43.25370 | 9.73007 | 38977 ft | 456 kts | 142° |
| 2026-05-05 10:11 | 43.20736 | 9.78961 | 38975 ft | 456 kts | 142° |
| 2026-05-05 10:11 | 43.16126 | 9.84871 | 38981 ft | 456 kts | 142° |
| 2026-05-05 10:12 | 43.11503 | 9.90820 | 38973 ft | 458 kts | 140° |
| 2026-05-05 10:12 | 43.09512 | 9.94271 | 38976 ft | 465 kts | 128° |
| 2026-05-05 10:12 | 43.07741 | 9.97981 | 38978 ft | 466 kts | 127° |
| 2026-05-05 10:13 | 43.04213 | 10.05358 | 38978 ft | 465 kts | 128° |
| 2026-05-05 10:13 | 43.00627 | 10.12699 | 38981 ft | 464 kts | 128° |
| 2026-05-05 10:14 | 42.97012 | 10.20019 | 38982 ft | 464 kts | 128° |
| 2026-05-05 10:14 | 42.93397 | 10.27317 | 38982 ft | 464 kts | 128° |
| 2026-05-05 10:15 | 42.89776 | 10.34609 | 38986 ft | 464 kts | 128° |
| 2026-05-05 10:15 | 42.86155 | 10.41888 | 38988 ft | 463 kts | 128° |
| 2026-05-05 10:16 | 42.82552 | 10.49110 | 38990 ft | 455 kts | 128° |
| 2026-05-05 10:16 | 42.79011 | 10.56188 | 38581 ft | 458 kts | 128° |
| 2026-05-05 10:17 | 42.77207 | 10.59778 | 38235 ft | 461 kts | 129° |
| 2026-05-05 10:17 | 42.75397 | 10.63379 | 37614 ft | 460 kts | 129° |
| 2026-05-05 10:17 | 42.73588 | 10.66974 | 36832 ft | 461 kts | 129° |
| 2026-05-05 10:17 | 42.71764 | 10.70592 | 36030 ft | 463 kts | 129° |
| 2026-05-05 10:18 | 42.69979 | 10.74145 | 35260 ft | 465 kts | 129° |
| 2026-05-05 10:18 | 42.68145 | 10.77787 | 34444 ft | 468 kts | 129° |
| 2026-05-05 10:18 | 42.66302 | 10.81445 | 33479 ft | 471 kts | 129° |
| 2026-05-05 10:18 | 42.64441 | 10.85132 | 32472 ft | 474 kts | 129° |
| 2026-05-05 10:19 | 42.62569 | 10.88839 | 31469 ft | 478 kts | 129° |
| 2026-05-05 10:19 | 42.60683 | 10.92569 | 30470 ft | 480 kts | 129° |
| 2026-05-05 10:19 | 42.58788 | 10.96309 | 29380 ft | 482 kts | 128° |
| 2026-05-05 10:19 | 42.56885 | 11.00058 | 28336 ft | 481 kts | 128° |
| 2026-05-05 10:20 | 42.55001 | 11.03767 | 27470 ft | 473 kts | 128° |
| 2026-05-05 10:20 | 42.53162 | 11.07375 | 26616 ft | 468 kts | 128° |
| 2026-05-05 10:20 | 42.51310 | 11.11002 | 25717 ft | 466 kts | 128° |
| 2026-05-05 10:20 | 42.49468 | 11.14602 | 24805 ft | 464 kts | 128° |
| 2026-05-05 10:21 | 42.47635 | 11.18192 | 23897 ft | 463 kts | 128° |
| 2026-05-05 10:21 | 42.45810 | 11.21769 | 22883 ft | 458 kts | 128° |
| 2026-05-05 10:21 | 42.44259 | 11.25511 | 21863 ft | 457 kts | 115° |
| 2026-05-05 10:21 | 42.43454 | 11.29649 | 20929 ft | 453 kts | 101° |
| 2026-05-05 10:22 | 42.43024 | 11.33836 | 20056 ft | 446 kts | 99° |
| 2026-05-05 10:22 | 42.42615 | 11.37967 | 19245 ft | 438 kts | 99° |
| 2026-05-05 10:22 | 42.42188 | 11.42011 | 18498 ft | 430 kts | 100° |
| 2026-05-05 10:22 | 42.41749 | 11.45986 | 17716 ft | 423 kts | 101° |
| 2026-05-05 10:23 | 42.41310 | 11.49860 | 16942 ft | 415 kts | 101° |
| 2026-05-05 10:23 | 42.40875 | 11.53683 | 16226 ft | 408 kts | 101° |
| 2026-05-05 10:23 | 42.40447 | 11.57445 | 15524 ft | 402 kts | 101° |
| 2026-05-05 10:23 | 42.40007 | 11.61121 | 15080 ft | 389 kts | 102° |
| 2026-05-05 10:24 | 42.39538 | 11.64651 | 14766 ft | 372 kts | 102° |
| 2026-05-05 10:24 | 42.39089 | 11.68014 | 14280 ft | 355 kts | 102° |
| 2026-05-05 10:24 | 42.38661 | 11.71224 | 13747 ft | 340 kts | 103° |
| 2026-05-05 10:24 | 42.38252 | 11.74321 | 13185 ft | 327 kts | 103° |
| 2026-05-05 10:25 | 42.37859 | 11.77278 | 12736 ft | 312 kts | 103° |
| 2026-05-05 10:25 | 42.37170 | 11.79988 | 12105 ft | 300 kts | 124° |
| 2026-05-05 10:25 | 42.35888 | 11.82113 | 11546 ft | 288 kts | 144° |
| 2026-05-05 10:25 | 42.34355 | 11.83598 | 11033 ft | 286 kts | 152° |
| 2026-05-05 10:26 | 42.32719 | 11.85029 | 10457 ft | 282 kts | 152° |
| 2026-05-05 10:26 | 42.31088 | 11.86474 | 9892 ft | 279 kts | 152° |
| 2026-05-05 10:26 | 42.29484 | 11.87915 | 9277 ft | 275 kts | 151° |
| 2026-05-05 10:26 | 42.27902 | 11.89344 | 8688 ft | 271 kts | 151° |
| 2026-05-05 10:27 | 42.26348 | 11.90755 | 8105 ft | 268 kts | 150° |
| 2026-05-05 10:27 | 42.24812 | 11.92157 | 7528 ft | 264 kts | 150° |
| 2026-05-05 10:27 | 42.23304 | 11.93535 | 6967 ft | 259 kts | 150° |
| 2026-05-05 10:27 | 42.21826 | 11.94886 | 6410 ft | 254 kts | 150° |
| 2026-05-05 10:28 | 42.20392 | 11.96197 | 5816 ft | 250 kts | 150° |
| 2026-05-05 10:28 | 42.18968 | 11.97500 | 5230 ft | 244 kts | 150° |
| 2026-05-05 10:28 | 42.17575 | 11.98773 | 4653 ft | 239 kts | 150° |
| 2026-05-05 10:28 | 42.16216 | 12.00012 | 4193 ft | 232 kts | 150° |
| 2026-05-05 10:29 | 42.14908 | 12.01204 | 4003 ft | 223 kts | 150° |
| 2026-05-05 10:29 | 42.13636 | 12.02364 | 3919 ft | 215 kts | 150° |
| 2026-05-05 10:29 | 42.12425 | 12.03475 | 3685 ft | 207 kts | 150° |
| 2026-05-05 10:29 | 42.11321 | 12.04706 | 3409 ft | 207 kts | 139° |
| 2026-05-05 10:30 | 42.10350 | 12.06135 | 3110 ft | 207 kts | 136° |
| 2026-05-05 10:30 | 42.09390 | 12.07564 | 2814 ft | 204 kts | 136° |
| 2026-05-05 10:30 | 42.08440 | 12.08967 | 2542 ft | 199 kts | 137° |
| 2026-05-05 10:30 | 42.07511 | 12.10331 | 2507 ft | 195 kts | 137° |
| 2026-05-05 10:31 | 42.06594 | 12.11671 | 2493 ft | 195 kts | 137° |
| 2026-05-05 10:31 | 42.05693 | 12.12995 | 2487 ft | 190 kts | 137° |
| 2026-05-05 10:31 | 42.04807 | 12.14292 | 2482 ft | 185 kts | 137° |
| 2026-05-05 10:31 | 42.03936 | 12.15563 | 2493 ft | 185 kts | 137° |
| 2026-05-05 10:32 | 42.03064 | 12.16840 | 2488 ft | 185 kts | 137° |
| 2026-05-05 10:32 | 42.02192 | 12.18116 | 2486 ft | 185 kts | 137° |
| 2026-05-05 10:32 | 42.01179 | 12.19137 | 2484 ft | 181 kts | 157° |
| 2026-05-05 10:32 | 42.00014 | 12.19691 | 2486 ft | 180 kts | 167° |
| 2026-05-05 10:33 | 41.98851 | 12.20157 | 2492 ft | 170 kts | 165° |
| 2026-05-05 10:33 | 41.97721 | 12.20629 | 2488 ft | 170 kts | 164° |
| 2026-05-05 10:33 | 41.96602 | 12.21100 | 2444 ft | 166 kts | 164° |
| 2026-05-05 10:33 | 41.95507 | 12.21561 | 2285 ft | 164 kts | 164° |
| 2026-05-05 10:34 | 41.94426 | 12.22017 | 2087 ft | 160 kts | 165° |
| 2026-05-05 10:34 | 41.93384 | 12.22456 | 1885 ft | 148 kts | 165° |
| 2026-05-05 10:34 | 41.92445 | 12.22851 | 1669 ft | 136 kts | 164° |
| 2026-05-05 10:34 | 41.91648 | 12.23186 | 1485 ft | 110 kts | 163° |
| 2026-05-05 10:35 | 41.90936 | 12.23486 | 1336 ft | 107 kts | 163° |
| 2026-05-05 10:35 | 41.90230 | 12.23782 | 1206 ft | 107 kts | 164° |
| 2026-05-05 10:35 | 41.89524 | 12.24079 | 1079 ft | 106 kts | 164° |
| 2026-05-05 10:35 | 41.88817 | 12.24376 | 932 ft | 107 kts | 163° |
| 2026-05-05 10:36 | 41.88097 | 12.24679 | 789 ft | 108 kts | 163° |
| 2026-05-05 10:36 | 41.87371 | 12.24984 | 643 ft | 110 kts | 163° |
| 2026-05-05 10:36 | 41.86642 | 12.25291 | 479 ft | 109 kts | 163° |
| 2026-05-05 10:36 | 41.85922 | 12.25596 | 328 ft | 108 kts | 163° |
| 2026-05-05 10:37 | 41.85200 | 12.25892 | 199 ft | 109 kts | 162° |
| 2026-05-05 10:37 | 41.84722 | 12.26094 | 99 ft | 109 kts | 161° |
| 2026-05-05 10:37 | 41.83824 | 12.26473 | 30 ft | 90 kts | 161° |
| 2026-05-05 10:37 | 41.83328 | 12.26680 | 18 ft | 52 kts | 162° |
| 2026-05-05 10:38 | 41.82995 | 12.26824 | 18 ft | 50 kts | 161° |
| 2026-05-05 10:38 | 41.82686 | 12.26867 | 16 ft | 45 kts | 190° |
| 2026-05-05 10:38 | 41.82432 | 12.26789 | 16 ft | 31 kts | 192° |
| 2026-05-05 10:38 | 41.82294 | 12.26796 | 16 ft | 28 kts | 164° |
| 2026-05-05 10:39 | 41.82099 | 12.26873 | 16 ft | 30 kts | 163° |
| 2026-05-05 10:39 | 41.81889 | 12.26961 | 18 ft | 33 kts | 162° |
| 2026-05-05 10:39 | 41.81666 | 12.27056 | 17 ft | 35 kts | 162° |
| 2026-05-05 10:39 | 41.81430 | 12.27154 | 17 ft | 36 kts | 162° |
| 2026-05-05 10:40 | 41.81186 | 12.27257 | 18 ft | 33 kts | 162° |
| 2026-05-05 10:40 | 41.80973 | 12.27343 | 18 ft | 29 kts | 164° |
| 2026-05-05 10:40 | 41.80807 | 12.27328 | 18 ft | 24 kts | 192° |
| 2026-05-05 10:40 | 41.80669 | 12.27254 | 18 ft | 23 kts | 231° |
| 2026-05-05 10:41 | 41.80606 | 12.27043 | 19 ft | 26 kts | 250° |
| 2026-05-05 10:41 | 41.80540 | 12.26806 | 19 ft | 28 kts | 249° |
| 2026-05-05 10:41 | 41.80467 | 12.26547 | 22 ft | 31 kts | 249° |
| 2026-05-05 10:41 | 41.80401 | 12.26312 | 22 ft | 26 kts | 249° |
| 2026-05-05 10:42 | 41.80255 | 12.26063 | 19 ft | 20 kts | 202° |
| 2026-05-05 10:42 | 41.80126 | 12.25984 | 19 ft | 19 kts | 206° |
| 2026-05-05 10:42 | 41.80007 | 12.25907 | 19 ft | 15 kts | 205° |
| 2026-05-05 10:43 | 41.79962 | 12.25879 | 21 ft | 0 kts | 204° |
| 2026-05-05 10:43 | 41.79961 | 12.25879 | 21 ft | 0 kts | 204° |
| 2026-05-05 10:43 | 41.79961 | 12.25878 | 21 ft | 0 kts | 204° |
| 2026-05-05 10:44 | 41.79952 | 12.25873 | 19 ft | 5 kts | 204° |
| 2026-05-05 10:45 | 41.79906 | 12.25846 | 19 ft | 10 kts | 204° |
| 2026-05-05 10:45 | 41.79834 | 12.25795 | 21 ft | 13 kts | 216° |
| 2026-05-05 10:45 | 41.79789 | 12.25755 | 19 ft | 7 kts | 234° |
| 2026-05-05 10:45 | 41.79792 | 12.25710 | 19 ft | 2 kts | 296° |
| 2026-05-05 10:46 | 41.79798 | 12.25695 | 22 ft | 2 kts | 295° |
| 2026-05-05 10:46 | 41.79799 | 12.25692 | 21 ft | 0 kts | 295° |